createdAt,value
2022-12-09T00:01:24.310Z,6.00
2022-12-09T00:03:51.231Z,5.70
2022-12-09T00:06:25.139Z,5.82
2022-12-09T00:08:53.241Z,5.78
2022-12-09T00:11:21.547Z,6.63
2022-12-09T00:13:57.012Z,7.90
2022-12-09T00:16:26.714Z,6.93
2022-12-09T00:18:53.634Z,6.30
2022-12-09T00:21:27.641Z,7.00
2022-12-09T00:23:57.034Z,6.18
2022-12-09T00:26:25.400Z,6.10
2022-12-09T00:28:52.866Z,6.07
2022-12-09T00:31:24.762Z,5.35
2022-12-09T00:36:22.648Z,5.30
2022-12-09T00:38:54.089Z,6.15
2022-12-09T00:41:21.146Z,7.28
2022-12-09T00:43:48.442Z,5.47
2022-12-09T00:46:18.414Z,5.47
2022-12-09T00:48:48.206Z,6.57
2022-12-09T00:51:18.105Z,7.05
2022-12-09T00:53:45.369Z,6.60
2022-12-09T00:56:12.185Z,7.18
2022-12-09T00:58:38.986Z,5.38
2022-12-09T01:01:06.063Z,5.70
2022-12-09T01:03:35.344Z,6.13
2022-12-09T01:06:08.267Z,6.97
2022-12-09T01:08:38.488Z,5.88
2022-12-09T01:11:16.314Z,6.43
2022-12-09T01:13:43.069Z,6.95
2022-12-09T01:16:18.036Z,6.68
2022-12-09T01:18:47.933Z,5.95
2022-12-09T01:21:14.736Z,7.85
2022-12-09T01:23:41.861Z,6.70
2022-12-09T01:26:09.108Z,6.13
2022-12-09T01:28:37.710Z,6.85
2022-12-09T01:31:09.641Z,6.03
2022-12-09T01:33:37.076Z,4.72
2022-12-09T01:36:10.726Z,6.00
2022-12-09T01:38:38.067Z,6.55
2022-12-09T01:41:09.453Z,6.93
2022-12-09T01:43:38.284Z,7.45
2022-12-09T01:46:05.258Z,6.63
2022-12-09T01:48:44.731Z,7.28
2022-12-09T01:51:15.680Z,6.75
2022-12-09T01:53:49.048Z,6.25
2022-12-09T01:56:24.268Z,4.60
2022-12-09T01:58:57.210Z,6.90
2022-12-09T02:01:29.257Z,7.47
2022-12-09T02:03:56.382Z,7.32
2022-12-09T02:06:25.786Z,7.47
2022-12-09T02:08:53.319Z,7.22
2022-12-09T02:11:50.640Z,6.95
2022-12-09T02:14:21.182Z,7.15
2022-12-09T02:17:09.311Z,7.85
2022-12-09T02:19:44.613Z,7.35
2022-12-09T02:22:19.203Z,6.95
2022-12-09T02:25:01.433Z,6.53
2022-12-09T02:27:44.512Z,6.85
2022-12-09T02:30:23.868Z,6.97
2022-12-09T02:33:17.417Z,7.53
2022-12-09T02:35:52.768Z,6.88
2022-12-09T02:38:28.843Z,6.45
2022-12-09T02:41:21.867Z,6.60
2022-12-09T02:43:57.551Z,6.95
2022-12-09T02:46:28.415Z,6.68
2022-12-09T02:48:58.530Z,6.57
2022-12-09T02:51:32.186Z,6.88
2022-12-09T02:54:10.005Z,6.70
2022-12-09T02:56:38.520Z,6.18
2022-12-09T02:59:05.596Z,6.68
2022-12-09T03:01:45.903Z,6.72
2022-12-09T03:04:27.087Z,7.00
2022-12-09T03:06:56.620Z,6.38
2022-12-09T03:09:33.888Z,7.93
2022-12-09T03:12:08.848Z,8.35
2022-12-09T03:14:45.406Z,8.40
2022-12-09T03:17:19.730Z,8.32
2022-12-09T03:19:49.966Z,6.95
2022-12-09T03:22:26.030Z,8.35
2022-12-09T03:25:08.166Z,7.25
2022-12-09T03:27:42.332Z,8.48
2022-12-09T03:30:11.134Z,7.38
2022-12-09T03:32:39.768Z,6.20
2022-12-09T03:35:13.803Z,7.47
2022-12-09T03:37:42.104Z,8.38
2022-12-09T03:40:14.329Z,7.38
2022-12-09T03:42:53.202Z,8.27
2022-12-09T03:45:24.854Z,6.97
2022-12-09T03:47:52.382Z,7.07
2022-12-09T03:50:21.883Z,7.78
2022-12-09T03:52:54.001Z,7.85
2022-12-09T03:55:32.739Z,6.70
2022-12-09T03:58:01.450Z,7.80
2022-12-09T04:00:28.944Z,7.25
2022-12-09T04:02:55.734Z,8.23
2022-12-09T04:05:25.232Z,9.80
2022-12-09T04:07:52.459Z,8.93
2022-12-09T04:10:21.748Z,9.38
2022-12-09T04:12:48.397Z,11.07
2022-12-09T04:15:15.269Z,9.65
2022-12-09T04:17:42.351Z,9.05
2022-12-09T04:20:09.965Z,10.73
2022-12-09T04:22:36.989Z,9.10
2022-12-09T04:25:03.767Z,10.00
2022-12-09T04:27:30.787Z,10.57
2022-12-09T04:29:57.566Z,9.10
2022-12-09T04:32:24.597Z,8.95
2022-12-09T04:34:51.442Z,9.43
2022-12-09T04:37:18.685Z,9.43
2022-12-09T04:39:45.412Z,9.15
2022-12-09T04:42:12.201Z,8.38
2022-12-09T04:44:39.247Z,8.82
2022-12-09T04:47:06.262Z,9.13
2022-12-09T04:49:33.564Z,7.63
2022-12-09T04:52:00.743Z,7.53
2022-12-09T04:54:30.333Z,7.28
2022-12-09T04:56:59.809Z,9.20
2022-12-09T04:59:30.247Z,6.97
2022-12-09T05:01:57.266Z,7.40
2022-12-09T05:04:24.232Z,8.27
2022-12-09T05:06:54.231Z,8.73
2022-12-09T05:09:21.757Z,7.50
2022-12-09T05:11:48.553Z,8.00
2022-12-09T05:14:15.460Z,8.07
2022-12-09T05:16:45.436Z,9.45
2022-12-09T05:19:14.626Z,11.15
2022-12-09T05:21:44.088Z,10.40
2022-12-09T05:24:13.679Z,9.25
2022-12-09T05:26:41.150Z,10.90
2022-12-09T05:29:08.147Z,10.10
2022-12-09T05:31:35.036Z,9.57
2022-12-09T05:34:04.809Z,9.00
2022-12-09T05:36:34.361Z,8.85
2022-12-09T05:39:03.833Z,7.50
2022-12-09T05:41:30.825Z,7.80
2022-12-09T05:44:02.846Z,9.30
2022-12-09T05:49:01.305Z,9.57
2022-12-09T05:51:29.281Z,7.97
2022-12-09T05:53:58.157Z,8.63
2022-12-09T05:56:25.495Z,8.40
2022-12-09T05:58:53.534Z,10.32
2022-12-09T06:01:23.751Z,10.68
2022-12-09T06:03:52.214Z,11.05
2022-12-09T06:06:20.936Z,10.40
2022-12-09T06:08:50.848Z,10.65
2022-12-09T06:11:24.812Z,10.77
2022-12-09T06:13:52.522Z,10.40
2022-12-09T06:16:23.315Z,12.07
2022-12-09T06:18:51.392Z,8.43
2022-12-09T06:21:22.939Z,12.50
2022-12-09T06:23:53.636Z,9.85
2022-12-09T06:26:23.249Z,10.82
2022-12-09T06:28:50.992Z,11.95
2022-12-09T06:31:18.331Z,10.13
2022-12-09T06:33:55.391Z,11.55
2022-12-09T06:36:24.233Z,11.20
2022-12-09T06:38:53.366Z,11.05
2022-12-09T06:44:21.721Z,11.85
2022-12-09T06:46:50.599Z,11.38
2022-12-09T06:49:18.464Z,11.77
2022-12-09T06:51:50.601Z,11.80
2022-12-09T06:54:17.486Z,11.60
2022-12-09T06:56:44.875Z,13.13
2022-12-09T06:59:11.987Z,12.23
2022-12-09T07:01:39.099Z,12.43
2022-12-09T07:04:07.202Z,11.73
2022-12-09T07:06:37.416Z,12.68
2022-12-09T07:09:16.926Z,12.27
2022-12-09T07:11:47.980Z,11.07
2022-12-09T07:14:16.779Z,12.57
2022-12-09T07:16:46.955Z,12.52
2022-12-09T07:19:21.291Z,14.00
2022-12-09T07:21:49.623Z,12.35
2022-12-09T07:24:18.484Z,12.63
2022-12-09T07:26:45.806Z,13.00
2022-12-09T07:29:12.866Z,15.25
2022-12-09T07:31:39.747Z,14.70
2022-12-09T07:34:07.007Z,12.48
2022-12-09T07:36:35.167Z,13.15
2022-12-09T07:39:05.576Z,15.18
2022-12-09T07:41:32.541Z,10.73
2022-12-09T07:43:59.805Z,11.10
2022-12-09T07:46:29.848Z,12.27
2022-12-09T07:48:59.535Z,12.48
2022-12-09T07:51:26.802Z,10.48
2022-12-09T07:53:54.182Z,11.63
2022-12-09T07:56:22.633Z,11.02
2022-12-09T07:58:53.353Z,11.18
2022-12-09T08:01:28.630Z,11.57
2022-12-09T08:03:58.611Z,15.35
2022-12-09T08:06:30.330Z,13.90
2022-12-09T08:09:02.446Z,13.95
2022-12-09T08:11:33.913Z,14.02
2022-12-09T08:14:10.879Z,10.07
2022-12-09T08:16:42.627Z,14.80
2022-12-09T08:19:11.219Z,14.18
2022-12-09T08:21:40.719Z,14.70
2022-12-09T08:24:11.141Z,13.45
2022-12-09T08:26:39.442Z,13.65
2022-12-09T08:29:14.363Z,13.85
2022-12-09T08:31:43.834Z,13.07
2022-12-09T08:34:14.174Z,14.90
2022-12-09T08:36:44.349Z,12.23
2022-12-09T08:39:13.172Z,13.63
2022-12-09T08:41:41.004Z,15.30
2022-12-09T08:44:10.390Z,13.50
2022-12-09T08:46:41.906Z,13.95
2022-12-09T08:49:30.596Z,13.40
2022-12-09T08:51:59.715Z,13.85
2022-12-09T08:54:26.867Z,14.27
2022-12-09T08:57:00.410Z,12.73
2022-12-09T08:59:57.141Z,14.10
2022-12-09T09:02:24.593Z,15.98
2022-12-09T09:05:04.025Z,17.27
2022-12-09T09:07:34.182Z,15.18
2022-12-09T09:10:01.866Z,15.32
2022-12-09T09:12:32.910Z,13.38
2022-12-09T09:15:03.528Z,14.80
2022-12-09T09:17:30.727Z,16.17
2022-12-09T09:20:00.152Z,19.92
2022-12-09T09:22:27.931Z,18.17
2022-12-09T09:24:55.582Z,15.98
2022-12-09T09:27:22.514Z,13.68
2022-12-09T09:29:49.601Z,12.45
2022-12-09T09:32:18.831Z,12.88
2022-12-09T09:34:50.644Z,13.35
2022-12-09T09:39:47.942Z,13.73
2022-12-09T09:42:19.747Z,14.73
2022-12-09T09:44:49.392Z,12.93
2022-12-09T09:47:36.227Z,14.57
2022-12-09T09:50:45.535Z,13.60
2022-12-09T09:53:20.212Z,12.65
2022-12-09T09:55:56.910Z,17.25
2022-12-09T09:58:39.028Z,19.95
2022-12-09T10:03:55.026Z,24.10
2022-12-09T10:06:47.790Z,21.65
2022-12-09T10:09:34.003Z,16.25
2022-12-09T10:12:06.521Z,18.35
2022-12-09T10:14:34.058Z,14.20
2022-12-09T10:17:27.190Z,14.93
2022-12-09T10:20:18.979Z,14.40
2022-12-09T10:23:07.151Z,14.25
2022-12-09T10:25:38.441Z,15.80
2022-12-09T10:28:25.524Z,13.68
2022-12-09T10:31:00.054Z,14.40
2022-12-09T10:33:36.093Z,14.63
2022-12-09T10:36:04.169Z,13.73
2022-12-09T10:38:37.728Z,15.02
2022-12-09T10:41:57.124Z,14.55
2022-12-09T10:44:28.344Z,14.23
2022-12-09T10:47:07.970Z,11.18
2022-12-09T10:49:38.542Z,10.93
2022-12-09T10:52:06.374Z,14.25
2022-12-09T10:54:40.149Z,14.30
2022-12-09T10:57:16.339Z,14.35
2022-12-09T11:00:07.029Z,13.98
2022-12-09T11:02:51.484Z,12.20
2022-12-09T11:05:31.905Z,14.43
2022-12-09T11:07:59.634Z,15.30
2022-12-09T11:10:31.482Z,14.15
2022-12-09T11:13:15.259Z,14.15
2022-12-09T11:15:50.335Z,15.95
2022-12-09T11:18:37.435Z,14.98
2022-12-09T11:21:07.818Z,14.77
2022-12-09T11:23:35.968Z,14.00
2022-12-09T11:26:07.065Z,14.82
2022-12-09T11:28:43.336Z,14.57
2022-12-09T11:31:29.414Z,14.38
2022-12-09T11:34:06.468Z,14.20
2022-12-09T11:36:36.936Z,14.38
2022-12-09T11:42:16.951Z,14.20
2022-12-09T11:44:53.484Z,17.08
2022-12-09T11:50:34.060Z,16.65
2022-12-09T11:53:08.819Z,16.60
2022-12-09T11:55:45.702Z,15.95
2022-12-09T11:58:17.462Z,15.02
2022-12-09T12:00:59.084Z,15.88
2022-12-09T12:03:40.710Z,17.45
2022-12-09T12:06:24.336Z,19.40
2022-12-09T12:09:01.054Z,16.55
2022-12-09T12:11:36.056Z,18.35
2022-12-09T12:14:17.465Z,15.55
2022-12-09T12:17:27.247Z,18.90
2022-12-09T12:19:57.545Z,18.63
2022-12-09T12:22:39.412Z,18.98
2022-12-09T12:25:33.904Z,21.05
2022-12-09T12:28:25.577Z,16.98
2022-12-09T12:31:01.636Z,18.38
2022-12-09T12:36:48.420Z,18.95
2022-12-09T12:39:55.781Z,17.73
2022-12-09T12:42:35.547Z,18.90
2022-12-09T12:45:33.052Z,18.17
2022-12-09T12:48:14.510Z,19.17
2022-12-09T12:50:42.272Z,19.27
2022-12-09T12:53:30.047Z,18.23
2022-12-09T12:56:00.037Z,18.30
2022-12-09T12:58:54.150Z,15.85
2022-12-09T13:01:33.565Z,18.38
2022-12-09T13:04:24.229Z,18.05
2022-12-09T13:07:05.187Z,16.50
2022-12-09T13:09:34.970Z,18.65
2022-12-09T13:12:13.899Z,17.83
2022-12-09T13:14:55.611Z,18.55
2022-12-09T13:17:31.362Z,17.67
2022-12-09T13:20:01.248Z,21.30
2022-12-09T13:22:43.961Z,18.73
2022-12-09T13:25:41.432Z,19.58
2022-12-09T13:28:19.262Z,18.83
2022-12-09T13:30:55.451Z,18.38
2022-12-09T13:33:36.301Z,17.50
2022-12-09T13:36:18.230Z,19.92
2022-12-09T13:38:45.029Z,20.90
2022-12-09T13:41:28.796Z,21.85
2022-12-09T13:44:09.417Z,23.40
2022-12-09T13:46:36.513Z,22.85
2022-12-09T13:49:26.804Z,21.88
2022-12-09T13:51:58.922Z,20.73
2022-12-09T13:54:29.472Z,24.75
2022-12-09T13:57:11.013Z,30.25
2022-12-09T13:59:40.558Z,27.27
2022-12-09T14:02:25.497Z,25.73
2022-12-09T14:05:30.213Z,23.95
2022-12-09T14:08:24.879Z,26.15
2022-12-09T14:10:53.154Z,23.17
2022-12-09T14:13:34.898Z,24.77
2022-12-09T14:16:28.909Z,22.27
2022-12-09T14:18:57.287Z,23.85
2022-12-09T14:21:26.661Z,24.02
2022-12-09T14:24:17.763Z,26.95
2022-12-09T14:26:47.827Z,27.00
2022-12-09T14:29:42.254Z,25.25
2022-12-09T14:32:38.130Z,22.38
2022-12-09T14:35:41.393Z,23.67
2022-12-09T14:38:25.557Z,25.00
2022-12-09T14:41:05.898Z,24.75
2022-12-09T14:43:55.714Z,26.63
2022-12-09T14:46:32.921Z,25.00
2022-12-09T14:49:48.595Z,25.73
2022-12-09T14:52:33.173Z,24.83
2022-12-09T14:55:06.905Z,24.35
2022-12-09T14:57:55.014Z,25.67
2022-12-09T15:00:36.077Z,24.90
2022-12-09T15:05:54.838Z,27.33
2022-12-09T15:08:53.814Z,26.05
2022-12-09T15:11:34.265Z,28.15
2022-12-09T15:14:24.972Z,33.10
2022-12-09T15:16:52.345Z,27.80
2022-12-09T15:19:58.611Z,38.25
2022-12-09T15:22:27.992Z,30.23
2022-12-09T15:25:00.647Z,20.07
2022-12-09T15:27:27.399Z,30.55
2022-12-09T15:29:54.882Z,28.63
2022-12-09T15:32:26.708Z,28.83
2022-12-09T15:34:58.822Z,27.58
2022-12-09T15:37:29.960Z,26.27
2022-12-09T15:40:08.611Z,30.07
2022-12-09T15:42:42.263Z,25.75
2022-12-09T15:45:11.812Z,28.13
2022-12-09T15:47:48.769Z,22.05
2022-12-09T15:50:18.292Z,24.00
2022-12-09T15:52:52.771Z,29.60
2022-12-09T15:55:31.519Z,26.52
2022-12-09T15:58:00.660Z,26.73
2022-12-09T16:00:29.948Z,29.05
2022-12-09T16:02:56.993Z,29.13
2022-12-09T16:05:30.954Z,25.92
2022-12-09T16:08:03.908Z,29.92
2022-12-09T16:10:30.914Z,31.98
2022-12-09T16:13:11.490Z,26.42
2022-12-09T16:15:45.080Z,31.27
2022-12-09T16:18:46.790Z,27.80
2022-12-09T16:21:32.905Z,33.50
2022-12-09T16:24:10.140Z,30.80
2022-12-09T16:26:41.954Z,31.02
2022-12-09T16:29:23.045Z,30.27
2022-12-09T16:32:25.617Z,29.55
2022-12-09T16:34:55.661Z,23.20
2022-12-09T16:37:22.395Z,28.88
2022-12-09T16:39:49.280Z,32.28
2022-12-09T16:42:39.292Z,31.45
2022-12-09T16:45:31.920Z,31.23
2022-12-09T16:48:02.609Z,26.70
2022-12-09T16:50:41.757Z,31.48
2022-12-09T16:53:24.514Z,24.13
2022-12-09T16:55:55.788Z,31.10
2022-12-09T16:58:25.232Z,25.30
2022-12-09T17:00:52.442Z,32.58
2022-12-09T17:04:00.611Z,29.63
2022-12-09T17:06:31.474Z,28.85
2022-12-09T17:08:58.364Z,35.17
2022-12-09T17:11:32.327Z,32.97
2022-12-09T17:14:01.158Z,28.35
2022-12-09T17:16:28.478Z,26.60
2022-12-09T17:18:55.425Z,22.52
2022-12-09T17:21:24.355Z,27.95
2022-12-09T17:23:53.276Z,24.05
2022-12-09T17:26:20.770Z,26.05
2022-12-09T17:28:50.697Z,28.55
2022-12-09T17:31:22.914Z,23.60
2022-12-09T17:33:50.110Z,26.83
2022-12-09T17:36:20.479Z,30.02
2022-12-09T17:38:52.123Z,39.15
2022-12-09T17:41:23.646Z,34.90
2022-12-09T17:43:51.104Z,33.97
2022-12-09T17:46:21.486Z,34.10
2022-12-09T17:48:50.447Z,44.58
2022-12-09T17:51:21.963Z,41.03
2022-12-09T17:53:50.432Z,31.98
2022-12-09T17:56:22.281Z,29.98
2022-12-09T17:58:58.980Z,30.25
2022-12-09T18:01:26.205Z,31.27
2022-12-09T18:04:01.344Z,30.58
2022-12-09T18:06:34.794Z,28.92
2022-12-09T18:09:06.586Z,30.70
2022-12-09T18:11:34.134Z,31.80
2022-12-09T18:14:01.432Z,38.83
2022-12-09T18:16:28.613Z,31.63
2022-12-09T18:18:58.129Z,33.50
2022-12-09T18:21:27.000Z,26.90
2022-12-09T18:23:56.075Z,31.00
2022-12-09T18:26:28.591Z,32.35
2022-12-09T18:29:02.953Z,30.77
2022-12-09T18:31:29.902Z,29.10
2022-12-09T18:33:56.727Z,30.02
2022-12-09T18:36:26.828Z,32.05
2022-12-09T18:38:57.955Z,27.60
2022-12-09T18:41:29.405Z,29.67
2022-12-09T18:44:01.094Z,28.25
2022-12-09T18:46:30.402Z,28.63
2022-12-09T18:49:15.952Z,27.77
2022-12-09T18:51:44.759Z,34.60
2022-12-09T18:54:17.195Z,36.45
2022-12-09T18:56:44.431Z,37.33
2022-12-09T18:59:13.833Z,42.03
2022-12-09T19:01:43.402Z,28.20
2022-12-09T19:04:30.904Z,32.83
2022-12-09T19:07:01.779Z,28.98
2022-12-09T19:09:36.391Z,33.05
2022-12-09T19:12:38.349Z,38.38
2022-12-09T19:14:53.977Z,30.58
2022-12-09T19:17:21.762Z,26.67
2022-12-09T19:19:49.374Z,25.20
2022-12-09T19:22:25.761Z,23.95
2022-12-09T19:24:52.534Z,25.48
2022-12-09T19:27:19.348Z,24.83
2022-12-09T19:29:46.009Z,25.83
2022-12-09T19:32:50.982Z,24.02
2022-12-09T19:35:01.615Z,23.85
2022-12-09T19:37:28.435Z,26.05
2022-12-09T19:39:55.150Z,27.48
2022-12-09T19:42:21.810Z,26.73
2022-12-09T19:45:12.127Z,26.02
2022-12-09T19:47:37.942Z,28.20
2022-12-09T19:50:10.496Z,23.20
2022-12-09T19:52:42.446Z,21.05
2022-12-09T19:55:09.530Z,25.80
2022-12-09T19:57:36.479Z,22.08
2022-12-09T20:00:04.170Z,20.48
2022-12-09T20:02:34.260Z,23.67
2022-12-09T20:05:06.459Z,21.23
2022-12-09T20:07:35.522Z,23.35
2022-12-09T20:10:02.394Z,22.95
2022-12-09T20:12:33.874Z,19.17
2022-12-09T20:15:02.872Z,25.08
2022-12-09T20:17:29.596Z,21.23
2022-12-09T20:20:01.378Z,21.98
2022-12-09T20:22:29.781Z,22.13
2022-12-09T20:24:59.077Z,23.08
2022-12-09T20:27:26.169Z,20.23
2022-12-09T20:29:52.945Z,22.00
2022-12-09T20:32:24.608Z,21.52
2022-12-09T20:34:55.610Z,21.20
2022-12-09T20:37:22.765Z,24.50
2022-12-09T20:39:51.865Z,23.23
2022-12-09T20:42:18.625Z,22.38
2022-12-09T20:44:48.225Z,20.30
2022-12-09T20:47:17.273Z,20.02
2022-12-09T20:49:44.087Z,21.77
2022-12-09T20:52:10.983Z,20.80
2022-12-09T20:54:40.590Z,21.92
2022-12-09T20:57:11.958Z,22.10
2022-12-09T20:59:40.916Z,16.02
2022-12-09T21:02:13.841Z,20.15
2022-12-09T21:04:44.024Z,21.30
2022-12-09T21:07:10.813Z,21.98
2022-12-09T21:09:40.404Z,22.40
2022-12-09T21:12:09.311Z,22.33
2022-12-09T21:14:38.315Z,20.90
2022-12-09T21:17:05.258Z,20.70
2022-12-09T21:19:32.559Z,21.98
2022-12-09T21:22:04.489Z,20.88
2022-12-09T21:24:33.870Z,17.63
2022-12-09T21:27:02.797Z,23.90
2022-12-09T21:29:32.522Z,26.27
2022-12-09T21:32:04.373Z,25.55
2022-12-09T21:34:33.612Z,27.40
2022-12-09T21:37:05.117Z,23.80
2022-12-09T21:39:32.226Z,22.20
2022-12-09T21:42:01.115Z,22.45
2022-12-09T21:44:28.319Z,21.55
2022-12-09T21:46:57.289Z,22.92
2022-12-09T21:49:26.396Z,22.02
2022-12-09T21:51:55.265Z,27.50
2022-12-09T21:54:22.246Z,22.23
2022-12-09T21:56:49.147Z,23.50
2022-12-09T21:59:18.751Z,23.88
2022-12-09T22:01:47.711Z,28.15
2022-12-09T22:04:18.546Z,24.25
2022-12-09T22:06:50.677Z,54.40
2022-12-09T22:09:20.614Z,21.45
2022-12-09T22:11:47.485Z,22.08
2022-12-09T22:14:18.937Z,19.20
2022-12-09T22:16:47.892Z,20.05
2022-12-09T22:19:22.965Z,24.50
2022-12-09T22:21:50.189Z,23.17
2022-12-09T22:24:18.120Z,21.50
2022-12-09T22:26:45.574Z,20.55
2022-12-09T22:29:14.421Z,22.13
2022-12-09T22:31:46.380Z,22.15
2022-12-09T22:36:52.694Z,20.98
2022-12-09T22:39:25.896Z,21.52
2022-12-09T22:41:54.930Z,20.73
2022-12-09T22:44:21.744Z,22.15
2022-12-09T22:46:51.134Z,21.60
2022-12-09T22:49:18.218Z,21.13
2022-12-09T22:51:45.955Z,21.13
2022-12-09T22:54:15.265Z,19.17
2022-12-09T22:56:42.855Z,19.95
2022-12-09T22:59:10.063Z,20.48
2022-12-09T23:01:39.296Z,23.10
2022-12-09T23:04:08.356Z,21.35
2022-12-09T23:06:38.715Z,23.20
2022-12-09T23:09:07.243Z,23.15
2022-12-09T23:11:39.311Z,25.13
2022-12-09T23:16:35.433Z,20.20
2022-12-09T23:19:06.950Z,23.35
2022-12-09T23:21:36.088Z,24.42
2022-12-09T23:24:06.876Z,24.27
2022-12-09T23:26:36.978Z,22.13
2022-12-09T23:29:05.424Z,19.35
2022-12-09T23:31:39.090Z,22.70
2022-12-09T23:34:09.660Z,22.20
2022-12-09T23:36:41.100Z,16.95
2022-12-09T23:39:11.074Z,21.67
2022-12-09T23:41:46.947Z,22.23
2022-12-09T23:44:16.794Z,23.08
2022-12-09T23:46:44.278Z,22.55
2022-12-09T23:49:22.746Z,22.25
2022-12-09T23:52:16.634Z,19.40
2022-12-09T23:54:43.464Z,20.98
2022-12-09T23:57:10.210Z,19.60
2022-12-09T23:59:37.058Z,18.15
